Time;durP1;ratioP1;P1;durP2;ratioP2;P2;SDS_P1;SDS_P2;PMS_P1;PMS_P2;Temp;Humidity;BMP_temperature;BMP_pressure;BME280_temperature;BME280_humidity;BME280_pressure;Samples;Min_cycle;Max_cycle;Signal;HPM_P1;HPM_P2
2023/04/30 00:01:03;;;;;;;13.20;10.43;;;7.70;1.00;;;;;;5077058;28;20860;-64
2023/04/30 00:03:30;;;;;;;14.00;9.57;;;7.60;1.00;;;;;;5076422;28;20493;-64
2023/04/30 00:05:57;;;;;;;11.83;10.47;;;7.60;1.00;;;;;;5076799;28;20961;-64
2023/04/30 00:08:25;;;;;;;11.60;10.37;;;7.60;1.00;;;;;;5076922;28;20483;-64
2023/04/30 00:10:54;;;;;;;11.93;10.60;;;7.60;1.00;;;;;;5077131;28;20900;-64
2023/04/30 00:13:21;;;;;;;11.20;10.10;;;7.60;1.00;;;;;;5076780;28;20656;-64
2023/04/30 00:15:48;;;;;;;17.17;10.10;;;7.50;1.00;;;;;;5076676;28;20559;-64
2023/04/30 00:18:15;;;;;;;12.80;10.70;;;7.50;1.00;;;;;;5076622;28;20504;-64
2023/04/30 00:20:43;;;;;;;12.30;10.43;;;7.50;1.00;;;;;;5076714;28;20555;-64
2023/04/30 00:23:10;;;;;;;13.70;9.30;;;7.40;1.00;;;;;;5076602;28;20532;-64
2023/04/30 00:25:37;;;;;;;13.00;10.33;;;7.40;1.00;;;;;;5076966;28;20895;-64
2023/04/30 00:28:06;;;;;;;14.97;11.30;;;7.30;1.00;;;;;;5076148;28;20772;-64
2023/04/30 00:30:33;;;;;;;11.30;10.10;;;7.30;1.00;;;;;;5079495;28;20465;-64
2023/04/30 00:33:00;;;;;;;13.17;10.27;;;7.20;1.00;;;;;;5080394;28;20592;-64
2023/04/30 00:35:27;;;;;;;13.97;10.77;;;7.10;1.00;;;;;;5080442;28;20949;-63
2023/04/30 00:37:55;;;;;;;10.83;9.73;;;7.10;1.00;;;;;;5080294;28;20555;-64
2023/04/30 00:40:22;;;;;;;12.80;11.00;;;7.10;1.00;;;;;;5080114;28;20461;-64
2023/04/30 00:42:51;;;;;;;12.97;10.83;;;7.00;1.00;;;;;;5080148;28;20851;-64
2023/04/30 00:45:20;;;;;;;15.03;10.60;;;7.00;3.00;;;;;;5080407;28;20461;-64
2023/04/30 00:47:48;;;;;;;11.47;10.30;;;7.00;92.30;;;;;;5079819;28;20473;-64
2023/04/30 00:50:16;;;;;;;12.30;11.10;;;7.00;99.90;;;;;;5079620;28;20539;-64
2023/04/30 00:52:43;;;;;;;14.70;11.77;;;7.00;99.90;;;;;;5080057;28;20511;-64
2023/04/30 00:55:12;;;;;;;12.83;10.30;;;6.90;99.90;;;;;;5079722;28;20471;-64
2023/04/30 00:57:39;;;;;;;11.70;10.20;;;6.80;99.90;;;;;;5079851;28;20556;-64
2023/04/30 01:00:10;;;;;;;16.60;11.20;;;6.80;99.90;;;;;;5079731;28;20471;-64
2023/04/30 01:02:38;;;;;;;12.73;11.30;;;6.80;99.90;;;;;;5079738;28;20761;-64
2023/04/30 01:05:07;;;;;;;14.23;11.10;;;6.80;99.90;;;;;;5079639;28;20458;-64
2023/04/30 01:07:35;;;;;;;12.60;10.73;;;6.70;99.90;;;;;;5079667;28;20497;-64
2023/04/30 01:10:03;;;;;;;13.10;11.20;;;6.70;99.90;;;;;;5079639;28;20465;-64
2023/04/30 01:12:37;;;;;;;13.27;11.87;;;6.70;99.90;;;;;;5079872;28;20518;-64
2023/04/30 01:15:14;;;;;;;13.67;11.80;;;6.70;99.90;;;;;;5079782;28;20547;-64
2023/04/30 01:17:50;;;;;;;15.23;11.13;;;6.60;99.90;;;;;;5079762;28;20978;-64
2023/04/30 01:20:19;;;;;;;12.70;10.83;;;6.60;99.90;;;;;;5077977;28;20480;-64
2023/04/30 01:22:52;;;;;;;16.60;11.03;;;6.50;99.90;;;;;;5079348;28;20556;-64
2023/04/30 01:25:44;;;;;;;14.07;11.30;;;6.50;99.90;;;;;;5078944;28;20461;-64
2023/04/30 01:28:16;;;;;;;14.43;10.60;;;6.40;99.90;;;;;;5070087;28;20801;-65
2023/04/30 01:30:45;;;;;;;14.67;12.90;;;6.40;99.90;;;;;;5077942;28;20432;-65
2023/04/30 01:33:13;;;;;;;13.03;11.00;;;6.30;99.90;;;;;;5078808;28;20570;-64
2023/04/30 01:35:58;;;;;;;16.77;13.00;;;6.30;99.90;;;;;;5078827;28;20457;-65
2023/04/30 01:38:49;;;;;;;11.87;10.67;;;6.30;1.00;;;;;;5077814;28;20511;-65
2023/04/30 01:41:23;;;;;;;14.60;11.20;;;6.20;1.00;;;;;;5077295;28;20461;-65
2023/04/30 01:44:02;;;;;;;16.37;11.80;;;6.20;1.00;;;;;;5077135;28;20554;-65
2023/04/30 01:46:31;;;;;;;14.27;11.50;;;6.10;1.00;;;;;;5077845;28;20461;-65
2023/04/30 01:49:09;;;;;;;15.20;13.60;;;6.00;1.00;;;;;;5077416;28;20556;-65
2023/04/30 01:51:41;;;;;;;15.63;12.03;;;6.00;1.00;;;;;;5077271;28;20492;-65
2023/04/30 01:54:16;;;;;;;15.70;13.60;;;6.00;99.90;;;;;;5079105;28;20428;-64
2023/04/30 01:56:51;;;;;;;16.30;12.80;;;6.00;1.00;;;;;;5079190;28;20566;-65
2023/04/30 01:59:20;;;;;;;17.13;11.70;;;5.90;99.90;;;;;;5078369;28;20468;-65
2023/04/30 02:01:48;;;;;;;16.70;12.33;;;5.90;99.90;;;;;;5078508;28;20461;-65
2023/04/30 02:04:15;;;;;;;18.00;12.93;;;5.90;99.90;;;;;;5078531;28;20987;-65
2023/04/30 02:06:42;;;;;;;15.63;13.40;;;5.80;99.90;;;;;;5078718;28;20893;-65
2023/04/30 02:09:09;;;;;;;16.60;13.07;;;5.80;99.90;;;;;;5074715;28;20769;-65
2023/04/30 02:11:36;;;;;;;15.87;12.87;;;5.70;99.90;;;;;;5058400;28;20484;-65
2023/04/30 02:14:05;;;;;;;16.77;13.47;;;5.60;99.90;;;;;;5058450;28;20458;-65
2023/04/30 02:16:33;;;;;;;16.50;12.80;;;5.60;88.40;;;;;;5058481;28;20470;-65
2023/04/30 02:19:00;;;;;;;16.70;13.83;;;5.60;99.90;;;;;;5058722;28;20564;-65
2023/04/30 02:21:27;;;;;;;19.23;12.20;;;5.60;1.00;;;;;;5058493;28;20462;-65
2023/04/30 02:23:55;;;;;;;16.47;12.83;;;5.50;99.90;;;;;;5058255;28;20588;-65
2023/04/30 02:26:22;;;;;;;17.63;12.63;;;5.50;1.00;;;;;;5058146;28;20466;-65
2023/04/30 02:28:49;;;;;;;17.07;14.90;;;5.50;99.90;;;;;;5057896;28;20490;-65
2023/04/30 02:31:16;;;;;;;16.40;13.27;;;5.50;99.90;;;;;;5057918;28;20559;-65
2023/04/30 02:33:45;;;;;;;14.73;12.43;;;5.30;99.90;;;;;;5058067;28;20501;-65
2023/04/30 02:36:12;;;;;;;18.53;14.47;;;5.30;1.00;;;;;;5058189;28;20469;-65
2023/04/30 02:38:39;;;;;;;16.23;13.80;;;5.20;1.00;;;;;;5058347;28;20464;-65
2023/04/30 02:41:06;;;;;;;16.93;14.37;;;5.40;99.90;;;;;;5057790;28;20969;-65
2023/04/30 02:43:33;;;;;;;15.97;13.93;;;5.30;99.90;;;;;;5058004;28;20581;-65
2023/04/30 02:46:00;;;;;;;17.87;13.83;;;5.30;1.00;;;;;;5057370;28;20466;-65
2023/04/30 02:48:28;;;;;;;16.80;13.17;;;5.30;1.00;;;;;;5057909;28;20930;-65
2023/04/30 02:50:56;;;;;;;15.80;12.73;;;5.30;1.00;;;;;;5057818;28;20891;-65
2023/04/30 02:53:23;;;;;;;17.37;14.50;;;5.20;99.90;;;;;;5056409;28;20902;-66
2023/04/30 02:55:51;;;;;;;17.70;14.10;;;5.10;99.90;;;;;;5057746;28;20544;-65
2023/04/30 02:58:18;;;;;;;17.70;13.13;;;5.10;3.10;;;;;;5057826;28;20465;-66
2023/04/30 03:00:45;;;;;;;16.67;14.50;;;5.10;1.00;;;;;;5057673;28;20466;-66
2023/04/30 03:03:12;;;;;;;20.10;14.87;;;5.00;1.00;;;;;;5057504;28;20463;-66
2023/04/30 03:05:39;;;;;;;17.30;15.10;;;5.00;1.00;;;;;;5057186;28;20552;-65
2023/04/30 03:08:08;;;;;;;16.20;14.47;;;5.00;40.80;;;;;;5057252;28;20480;-65
2023/04/30 03:10:35;;;;;;;17.10;13.20;;;4.90;99.90;;;;;;5057773;28;20462;-66
2023/04/30 03:13:02;;;;;;;17.00;14.73;;;4.80;99.90;;;;;;5057816;28;20902;-66
2023/04/30 03:15:29;;;;;;;17.17;14.37;;;4.80;58.90;;;;;;5057738;28;20462;-66
2023/04/30 03:17:56;;;;;;;17.03;13.83;;;4.70;99.90;;;;;;5057219;28;20466;-66
2023/04/30 03:20:24;;;;;;;16.40;14.10;;;4.70;1.00;;;;;;5057549;28;20466;-66
2023/04/30 03:22:51;;;;;;;15.10;13.43;;;4.70;99.90;;;;;;5057304;28;20908;-66
2023/04/30 03:25:20;;;;;;;16.97;13.33;;;4.70;1.00;;;;;;5056780;28;20501;-66
2023/04/30 03:27:47;;;;;;;17.03;14.30;;;4.70;1.00;;;;;;5056549;28;20545;-66
2023/04/30 03:30:14;;;;;;;17.90;15.17;;;4.70;72.40;;;;;;5057581;28;20462;-66
2023/04/30 03:32:41;;;;;;;17.10;14.77;;;4.60;1.00;;;;;;5057218;28;20991;-66
2023/04/30 03:35:09;;;;;;;16.43;14.10;;;4.60;99.90;;;;;;5056943;28;20784;-66
2023/04/30 03:37:37;;;;;;;18.70;15.00;;;4.50;99.90;;;;;;5057158;28;20468;-66
2023/04/30 03:40:05;;;;;;;15.97;13.57;;;4.50;99.90;;;;;;5057193;28;20461;-66
2023/04/30 03:42:34;;;;;;;17.40;13.70;;;4.50;1.00;;;;;;5057127;28;20458;-66
2023/04/30 03:45:01;;;;;;;16.33;13.30;;;4.50;1.00;;;;;;5056610;28;20539;-66
2023/04/30 03:47:28;;;;;;;17.60;14.37;;;4.50;99.90;;;;;;5056851;28;20757;-66
2023/04/30 03:49:55;;;;;;;20.10;14.90;;;4.40;1.00;;;;;;5056885;28;20891;-66
2023/04/30 03:52:22;;;;;;;18.00;14.10;;;4.40;99.90;;;;;;5056964;28;20553;-66
2023/04/30 03:54:50;;;;;;;21.50;15.37;;;4.40;99.90;;;;;;5057317;28;20541;-66
2023/04/30 03:57:17;;;;;;;19.70;16.80;;;4.40;99.90;;;;;;5056767;28;20975;-66
2023/04/30 03:59:46;;;;;;;23.80;18.87;;;4.40;70.30;;;;;;5056610;28;20548;-66
2023/04/30 04:02:13;;;;;;;23.23;19.67;;;4.40;99.90;;;;;;5056984;28;20501;-66
2023/04/30 04:04:41;;;;;;;23.17;19.10;;;4.40;99.90;;;;;;5060244;28;20905;-66
2023/04/30 04:07:10;;;;;;;24.70;19.30;;;4.40;99.90;;;;;;5060114;28;20461;-66
2023/04/30 04:09:37;;;;;;;22.47;18.63;;;4.50;99.90;;;;;;5060557;28;20470;-66
2023/04/30 04:12:05;;;;;;;22.10;17.80;;;4.50;99.90;;;;;;5060764;28;20556;-66
2023/04/30 04:14:32;;;;;;;21.03;18.73;;;4.50;99.90;;;;;;5064532;28;20819;-66
2023/04/30 04:17:01;;;;;;;24.93;19.43;;;4.50;99.90;;;;;;5080874;28;20747;-66
2023/04/30 04:19:28;;;;;;;23.40;18.77;;;4.40;99.90;;;;;;5066801;28;20474;-66
2023/04/30 04:21:56;;;;;;;20.43;17.40;;;4.40;99.90;;;;;;5066909;28;20857;-67
2023/04/30 04:24:25;;;;;;;18.17;15.73;;;4.40;99.90;;;;;;5080079;28;20588;-66
2023/04/30 04:26:52;;;;;;;22.93;15.33;;;4.30;99.90;;;;;;5080570;28;20461;-66
2023/04/30 04:29:19;;;;;;;20.20;15.27;;;4.30;99.90;;;;;;5079505;28;20588;-66
2023/04/30 04:31:47;;;;;;;17.10;14.27;;;4.30;99.90;;;;;;5079213;28;20467;-66
2023/04/30 04:34:16;;;;;;;20.50;14.40;;;4.30;99.90;;;;;;5079405;28;20913;-66
2023/04/30 04:36:43;;;;;;;16.90;15.03;;;4.20;99.90;;;;;;5079645;28;20467;-66
2023/04/30 04:39:12;;;;;;;21.33;16.07;;;4.20;99.90;;;;;;5079525;28;20468;-66
2023/04/30 04:41:40;;;;;;;19.80;16.57;;;4.30;99.90;;;;;;5079964;28;20465;-66
2023/04/30 04:44:07;;;;;;;20.10;16.50;;;4.30;99.90;;;;;;5080163;28;20471;-66
2023/04/30 04:46:37;;;;;;;23.07;18.80;;;4.30;99.90;;;;;;5079712;28;20508;-66
2023/04/30 04:49:04;;;;;;;24.73;18.80;;;4.40;99.90;;;;;;5078768;28;20436;-66
2023/04/30 04:51:33;;;;;;;20.70;18.03;;;4.50;99.90;;;;;;5078601;28;20770;-66
2023/04/30 04:54:00;;;;;;;21.83;17.70;;;4.60;99.90;;;;;;5078393;28;20952;-66
2023/04/30 04:56:28;;;;;;;23.43;19.57;;;4.70;99.90;;;;;;5078221;28;20796;-66
2023/04/30 04:58:55;;;;;;;22.13;18.37;;;4.70;99.90;;;;;;5078698;28;20849;-66
2023/04/30 05:01:22;;;;;;;23.40;17.83;;;4.80;99.90;;;;;;5077517;28;20497;-66
2023/04/30 05:03:50;;;;;;;22.67;18.77;;;4.90;99.90;;;;;;5078398;28;20951;-66
2023/04/30 05:06:17;;;;;;;23.00;17.70;;;5.00;99.90;;;;;;5078258;28;20547;-66
2023/04/30 05:08:45;;;;;;;20.40;18.20;;;5.00;99.90;;;;;;5078388;28;20654;-66
2023/04/30 05:11:12;;;;;;;23.87;16.87;;;5.00;99.90;;;;;;5069003;28;20492;-67
2023/04/30 05:13:40;;;;;;;23.37;19.53;;;5.10;99.90;;;;;;5078009;28;20555;-67
2023/04/30 05:16:07;;;;;;;21.50;18.00;;;5.20;99.90;;;;;;5076251;28;20461;-67
2023/04/30 05:18:34;;;;;;;21.97;18.53;;;5.20;99.90;;;;;;5078102;28;20808;-67
2023/04/30 05:21:03;;;;;;;29.27;20.23;;;5.30;99.90;;;;;;5078373;28;20552;-66
2023/04/30 05:23:30;;;;;;;27.07;20.40;;;5.40;99.90;;;;;;5077720;28;20471;-67
2023/04/30 05:25:59;;;;;;;24.30;18.70;;;5.50;99.90;;;;;;5077253;28;20504;-67
2023/04/30 05:28:26;;;;;;;24.30;20.20;;;5.60;99.90;;;;;;5077321;28;20539;-66
2023/04/30 05:30:54;;;;;;;25.67;21.00;;;5.70;99.90;;;;;;5077691;28;20666;-66
2023/04/30 05:33:21;;;;;;;29.27;23.07;;;5.80;99.90;;;;;;5077009;28;20463;-67
2023/04/30 05:35:48;;;;;;;29.47;22.57;;;5.90;99.90;;;;;;5076663;28;20530;-67
2023/04/30 05:38:15;;;;;;;26.27;21.60;;;6.00;99.90;;;;;;5077639;28;20556;-67
2023/04/30 05:40:42;;;;;;;30.37;22.13;;;6.20;99.90;;;;;;5078253;28;20466;-66
2023/04/30 05:43:11;;;;;;;26.60;20.13;;;6.20;99.90;;;;;;5077651;28;20462;-67
2023/04/30 05:45:38;;;;;;;25.27;21.37;;;6.40;99.90;;;;;;5078345;28;20471;-67
2023/04/30 05:48:05;;;;;;;22.87;20.33;;;6.40;99.90;;;;;;5078154;28;20894;-66
2023/04/30 05:50:33;;;;;;;25.90;20.77;;;6.60;99.90;;;;;;5078926;28;20547;-65
2023/04/30 05:53:00;;;;;;;25.70;20.20;;;6.70;99.90;;;;;;5079055;28;20786;-67
2023/04/30 05:55:28;;;;;;;27.70;20.27;;;6.90;99.90;;;;;;5078533;28;20465;-65
2023/04/30 05:57:55;;;;;;;26.90;20.93;;;7.00;99.90;;;;;;5078662;28;20462;-67
2023/04/30 06:00:24;;;;;;;23.80;20.00;;;7.20;99.90;;;;;;5078809;28;20493;-67
2023/04/30 06:02:51;;;;;;;21.70;19.13;;;7.40;99.90;;;;;;5078320;28;20461;-67
2023/04/30 06:05:19;;;;;;;26.10;19.70;;;7.60;99.90;;;;;;5076404;28;20588;-66
2023/04/30 06:07:46;;;;;;;20.40;18.20;;;7.90;99.90;;;;;;5078315;28;20493;-66
2023/04/30 06:10:13;;;;;;;20.93;16.63;;;8.10;99.90;;;;;;5077612;28;20473;-66
2023/04/30 06:12:40;;;;;;;18.43;16.53;;;8.40;99.90;;;;;;5078251;28;20564;-67
2023/04/30 06:15:08;;;;;;;19.20;16.80;;;8.50;99.90;;;;;;5077982;28;20458;-66
2023/04/30 06:17:37;;;;;;;16.90;14.90;;;8.80;99.90;;;;;;5078782;28;20535;-66
2023/04/30 06:20:05;;;;;;;15.60;14.00;;;9.10;99.90;;;;;;5078442;28;20767;-66
2023/04/30 06:22:33;;;;;;;16.70;14.87;;;9.40;99.90;;;;;;5078428;28;20488;-66
2023/04/30 06:25:00;;;;;;;16.33;14.63;;;9.70;99.90;;;;;;5078596;28;20493;-66
2023/04/30 06:27:27;;;;;;;14.90;13.37;;;10.00;1.00;;;;;;5077961;28;20560;-66
2023/04/30 06:29:55;;;;;;;15.53;13.30;;;9.90;1.00;;;;;;5077925;28;20465;-66
2023/04/30 06:32:22;;;;;;;15.77;12.83;;;10.10;99.90;;;;;;5078131;28;20560;-66
2023/04/30 06:34:50;;;;;;;18.00;14.43;;;10.40;1.00;;;;;;5078162;28;20457;-66
2023/04/30 06:37:18;;;;;;;16.70;14.87;;;10.70;99.90;;;;;;5077538;28;20965;-66
2023/04/30 06:39:45;;;;;;;15.13;12.73;;;10.60;94.20;;;;;;5076886;28;20479;-66
2023/04/30 06:42:12;;;;;;;18.13;12.80;;;10.80;20.20;;;;;;5077625;28;20500;-66
2023/04/30 06:44:39;;;;;;;13.80;12.40;;;11.00;32.40;;;;;;5076600;28;20579;-65
2023/04/30 06:47:06;;;;;;;14.20;12.47;;;11.40;9.50;;;;;;5075870;28;20468;-66
2023/04/30 06:49:34;;;;;;;13.50;11.80;;;11.60;1.00;;;;;;5075666;28;20522;-64
2023/04/30 06:52:04;;;;;;;13.63;12.33;;;11.60;1.00;;;;;;5075468;28;20457;-65
2023/04/30 06:54:31;;;;;;;16.13;12.33;;;12.10;1.00;;;;;;5076306;28;20461;-65
2023/04/30 06:56:58;;;;;;;14.60;12.30;;;12.40;1.00;;;;;;5076058;28;20454;-66
2023/04/30 06:59:25;;;;;;;12.80;11.60;;;12.20;1.00;;;;;;5076138;28;20961;-65
2023/04/30 07:01:52;;;;;;;14.17;12.67;;;11.80;1.00;;;;;;5075927;28;20464;-64
2023/04/30 07:04:19;;;;;;;13.83;12.43;;;11.90;1.00;;;;;;5075938;28;20825;-64
2023/04/30 07:06:47;;;;;;;12.70;11.40;;;12.20;1.00;;;;;;5075322;28;20571;-64
2023/04/30 07:09:15;;;;;;;15.43;12.50;;;12.70;1.00;;;;;;5075586;28;20812;-64
2023/04/30 07:11:43;;;;;;;13.50;12.20;;;12.90;1.00;;;;;;5075923;28;20493;-64
2023/04/30 07:14:10;;;;;;;12.30;11.10;;;12.80;1.00;;;;;;5076048;28;20748;-63
2023/04/30 07:16:37;;;;;;;11.93;10.73;;;12.70;1.00;;;;;;5075137;28;20453;-64
2023/04/30 07:19:04;;;;;;;12.93;11.63;;;12.80;1.00;;;;;;5075273;28;20461;-64
2023/04/30 07:21:32;;;;;;;14.07;11.40;;;13.50;1.00;;;;;;5076450;28;20808;-63
2023/04/30 07:23:59;;;;;;;13.70;11.87;;;14.10;1.00;;;;;;5076907;28;20476;-63
2023/04/30 07:26:28;;;;;;;14.07;12.57;;;14.50;1.00;;;;;;5077290;28;20501;-63
2023/04/30 07:28:55;;;;;;;12.13;10.80;;;14.80;1.00;;;;;;5077026;28;20541;-63
2023/04/30 07:31:23;;;;;;;12.57;10.67;;;15.10;1.00;;;;;;5077190;28;20465;-63
2023/04/30 07:33:51;;;;;;;12.23;10.00;;;15.20;1.00;;;;;;5076925;28;20484;-64
2023/04/30 07:36:18;;;;;;;13.63;10.80;;;14.70;1.00;;;;;;5077070;28;20461;-63
2023/04/30 07:38:45;;;;;;;11.63;10.47;;;15.10;1.00;;;;;;5076648;28;20556;-63
2023/04/30 07:41:13;;;;;;;12.23;11.00;;;15.50;1.00;;;;;;5076941;28;20468;-63
2023/04/30 07:43:41;;;;;;;11.20;10.20;;;15.70;1.00;;;;;;5076986;28;20465;-63
2023/04/30 07:46:09;;;;;;;10.43;9.40;;;15.50;1.00;;;;;;5076931;28;20529;-64
2023/04/30 07:48:36;;;;;;;10.80;9.70;;;16.00;1.00;;;;;;5076072;28;20588;-63
2023/04/30 07:51:04;;;;;;;9.97;9.07;;;16.10;1.00;;;;;;5085602;28;20770;-63
2023/04/30 07:53:31;;;;;;;9.43;8.63;;;16.30;1.00;;;;;;5075986;28;20443;-63
2023/04/30 07:55:58;;;;;;;10.00;9.00;;;16.30;1.00;;;;;;5076427;28;20563;-63
2023/04/30 07:58:26;;;;;;;12.10;9.20;;;16.50;1.00;;;;;;5077010;28;20461;-63
2023/04/30 08:00:55;;;;;;;9.17;8.37;;;16.60;1.00;;;;;;5075774;28;20966;-63
2023/04/30 08:03:22;;;;;;;9.60;8.63;;;16.70;1.00;;;;;;5076817;28;20962;-63
2023/04/30 08:05:49;;;;;;;12.53;9.67;;;16.90;1.00;;;;;;5076992;28;20543;-63
2023/04/30 08:08:18;;;;;;;9.60;8.70;;;17.10;1.00;;;;;;5076889;28;20761;-64
2023/04/30 08:10:45;;;;;;;9.53;8.53;;;17.40;1.00;;;;;;5076790;28;20463;-63
2023/04/30 08:13:13;;;;;;;8.70;7.90;;;17.00;99.90;;;;;;5076445;28;20548;-64
2023/04/30 08:15:41;;;;;;;8.33;7.53;;;17.10;1.00;;;;;;5076705;28;20461;-64
2023/04/30 08:18:09;;;;;;;9.10;8.30;;;17.50;1.00;;;;;;5076472;28;20483;-64
2023/04/30 08:20:37;;;;;;;7.60;6.90;;;16.70;99.90;;;;;;5077125;28;20753;-64
2023/04/30 08:23:04;;;;;;;7.40;6.70;;;17.20;99.90;;;;;;5072503;28;20478;-63
2023/04/30 08:25:32;;;;;;;7.50;6.80;;;16.80;99.90;;;;;;5075045;28;20540;-63
2023/04/30 08:27:59;;;;;;;7.23;6.53;;;17.60;99.90;;;;;;5073262;28;20493;-64
2023/04/30 08:30:26;;;;;;;6.93;6.23;;;18.20;99.90;;;;;;5076243;28;20500;-63
2023/04/30 08:32:53;;;;;;;5.67;5.17;;;18.70;99.90;;;;;;5073611;28;20845;-63
2023/04/30 08:35:22;;;;;;;6.50;4.73;;;18.90;99.90;;;;;;5071562;28;20836;-63
2023/04/30 08:37:49;;;;;;;5.40;5.00;;;18.50;99.90;;;;;;5070844;28;20496;-63
2023/04/30 08:40:17;;;;;;;5.17;4.77;;;18.80;99.90;;;;;;5075005;28;20477;-63
2023/04/30 08:42:49;;;;;;;5.80;5.30;;;19.00;99.90;;;;;;5076672;28;20484;-63
2023/04/30 08:45:16;;;;;;;4.90;4.50;;;19.40;99.90;;;;;;5075171;28;20489;-63
2023/04/30 08:47:45;;;;;;;5.43;4.27;;;19.00;99.90;;;;;;5074418;28;20655;-63
2023/04/30 08:50:12;;;;;;;4.67;4.27;;;18.00;99.90;;;;;;5076633;28;20802;-63
2023/04/30 08:52:42;;;;;;;4.47;3.67;;;18.30;99.90;;;;;;5080183;28;20544;-63
2023/04/30 08:55:10;;;;;;;4.43;4.00;;;18.60;99.90;;;;;;5079807;28;20461;-63
2023/04/30 08:57:38;;;;;;;4.37;3.97;;;18.80;99.90;;;;;;5079804;28;20897;-63
2023/04/30 09:00:07;;;;;;;3.77;3.47;;;19.30;99.90;;;;;;5079656;28;20469;-63
2023/04/30 09:02:34;;;;;;;4.90;4.50;;;19.40;99.90;;;;;;5079974;28;20548;-63
2023/04/30 09:05:02;;;;;;;5.10;4.70;;;19.00;99.90;;;;;;5078547;28;20461;-63
2023/04/30 09:07:33;;;;;;;5.30;4.80;;;19.50;99.90;;;;;;5079112;28;20556;-63
2023/04/30 09:10:03;;;;;;;4.80;4.40;;;20.10;99.90;;;;;;5078601;28;20479;-63
2023/04/30 09:12:30;;;;;;;5.30;4.73;;;19.40;99.90;;;;;;5078483;28;20560;-60
2023/04/30 09:15:00;;;;;;;5.90;5.37;;;19.20;99.90;;;;;;5076402;28;20565;-61
2023/04/30 09:17:27;;;;;;;6.03;5.37;;;19.40;99.90;;;;;;5078162;28;20461;-57
2023/04/30 09:19:56;;;;;;;5.93;5.43;;;19.40;99.90;;;;;;5075320;28;20894;-61
2023/04/30 09:22:24;;;;;;;5.60;5.10;;;19.20;99.90;;;;;;5077400;28;20469;-59
2023/04/30 09:24:52;;;;;;;6.47;5.90;;;19.10;99.90;;;;;;5076865;28;20465;-61
2023/04/30 09:27:23;;;;;;;5.80;5.30;;;18.60;99.90;;;;;;5073966;28;20505;-60
2023/04/30 09:29:50;;;;;;;5.53;5.03;;;19.20;99.90;;;;;;5076328;28;20809;-61
2023/04/30 09:32:18;;;;;;;3.87;3.57;;;20.00;99.90;;;;;;5077752;28;20548;-57
2023/04/30 09:34:45;;;;;;;5.00;4.60;;;20.00;99.90;;;;;;5077998;28;20461;-59
2023/04/30 09:37:12;;;;;;;6.30;5.80;;;19.80;99.90;;;;;;5077249;28;20556;-61
2023/04/30 09:39:49;;;;;;;7.20;6.60;;;19.50;99.90;;;;;;5078364;28;20559;-59
2023/04/30 09:42:18;;;;;;;5.50;5.00;;;19.70;99.90;;;;;;5079509;28;20796;-59
2023/04/30 09:44:47;;;;;;;6.80;5.43;;;20.10;99.90;;;;;;5078681;28;20530;-58
2023/04/30 09:47:16;;;;;;;6.40;5.77;;;20.50;99.90;;;;;;5077169;28;20777;-59
2023/04/30 09:49:44;;;;;;;5.83;5.33;;;20.40;99.90;;;;;;5077149;28;20547;-60
2023/04/30 09:52:12;;;;;;;5.30;4.80;;;20.50;99.90;;;;;;5065198;28;20474;-60
2023/04/30 09:54:40;;;;;;;4.53;4.07;;;20.50;99.90;;;;;;5056807;28;20739;-60
2023/04/30 09:57:11;;;;;;;4.33;3.93;;;21.00;99.90;;;;;;5057535;28;20549;-59
2023/04/30 09:59:41;;;;;;;4.07;3.77;;;21.30;99.90;;;;;;5058281;28;20458;-61
2023/04/30 10:02:10;;;;;;;4.53;4.13;;;21.10;99.90;;;;;;5076290;28;20548;-59
2023/04/30 10:04:39;;;;;;;4.20;3.53;;;20.90;99.90;;;;;;5078085;28;20457;-60
2023/04/30 10:07:12;;;;;;;4.80;4.30;;;21.30;99.90;;;;;;5076942;28;20599;-59
2023/04/30 10:09:41;;;;;;;4.73;4.30;;;21.90;99.90;;;;;;5077158;28;20504;-59
2023/04/30 10:12:14;;;;;;;5.00;4.60;;;21.70;99.90;;;;;;5077200;28;20579;-60
2023/04/30 10:14:47;;;;;;;5.47;5.00;;;21.60;99.90;;;;;;5077121;28;20566;-60
2023/04/30 10:17:17;;;;;;;5.60;4.20;;;21.70;99.90;;;;;;5076631;28;20824;-61
2023/04/30 10:19:48;;;;;;;6.73;4.97;;;21.50;99.90;;;;;;5076771;28;20560;-58
2023/04/30 10:22:16;;;;;;;4.87;4.47;;;21.70;99.90;;;;;;5076976;28;20453;-61
2023/04/30 10:24:43;;;;;;;5.80;4.60;;;21.30;99.90;;;;;;5076978;28;20544;-59
2023/04/30 10:27:11;;;;;;;4.47;4.07;;;20.80;99.90;;;;;;5076380;28;20921;-61
2023/04/30 10:29:38;;;;;;;4.57;4.17;;;20.60;99.90;;;;;;5076960;28;20457;-59
2023/04/30 10:32:06;;;;;;;4.03;3.63;;;19.90;99.90;;;;;;5076957;28;20560;-59
2023/04/30 10:34:47;;;;;;;4.03;3.73;;;20.60;99.90;;;;;;5078144;28;20496;-60
2023/04/30 10:37:24;;;;;;;4.80;4.40;;;21.50;99.90;;;;;;5077809;28;20540;-59
2023/04/30 10:39:51;;;;;;;4.27;3.87;;;22.00;99.90;;;;;;5078307;28;20840;-62
2023/04/30 10:42:19;;;;;;;3.90;3.60;;;21.40;99.90;;;;;;5078336;28;20874;-59
2023/04/30 10:44:47;;;;;;;5.00;3.80;;;21.40;99.90;;;;;;5078016;28;20925;-62
2023/04/30 10:47:18;;;;;;;5.17;3.90;;;21.50;99.90;;;;;;5076805;28;20493;-61
2023/04/30 10:49:49;;;;;;;3.53;3.23;;;21.90;99.90;;;;;;5072270;28;20564;-61
2023/04/30 10:52:27;;;;;;;3.30;2.87;;;22.20;99.90;;;;;;5077721;28;20886;-59
2023/04/30 10:54:54;;;;;;;2.83;2.63;;;22.20;99.90;;;;;;5076444;28;20457;-61
2023/04/30 10:57:23;;;;;;;2.73;2.43;;;21.40;99.90;;;;;;5075698;28;20454;-61
2023/04/30 11:00:15;;;;;;;2.90;2.60;;;21.30;99.90;;;;;;5075811;28;20468;-62
2023/04/30 11:02:43;;;;;;;2.40;2.20;;;21.90;99.90;;;;;;5065349;28;20474;-60
2023/04/30 11:05:14;;;;;;;3.10;2.20;;;22.00;99.90;;;;;;5055501;28;20523;-58
2023/04/30 11:07:51;;;;;;;2.93;2.60;;;21.90;99.90;;;;;;5071224;28;20495;-59
2023/04/30 11:10:22;;;;;;;2.50;2.30;;;21.70;99.90;;;;;;5076236;28;20461;-58
2023/04/30 11:12:51;;;;;;;2.80;2.60;;;21.30;99.90;;;;;;5075851;28;20461;-57
2023/04/30 11:15:20;;;;;;;2.87;2.60;;;20.00;99.90;;;;;;5076321;28;20839;-55
2023/04/30 11:17:49;;;;;;;2.13;2.03;;;20.00;99.90;;;;;;5077039;28;20457;-59
2023/04/30 11:20:23;;;;;;;2.50;2.30;;;20.60;99.90;;;;;;5077741;28;20456;-56
2023/04/30 11:23:09;;;;;;;2.60;2.40;;;20.30;99.90;;;;;;5076022;28;20551;-58
2023/04/30 11:25:41;;;;;;;2.47;2.27;;;21.30;99.90;;;;;;5076857;28;20471;-59
2023/04/30 11:28:09;;;;;;;3.20;3.00;;;22.10;99.90;;;;;;5075126;28;20481;-59
2023/04/30 11:30:36;;;;;;;3.70;3.23;;;22.70;99.90;;;;;;5057108;28;20902;-59
2023/04/30 11:33:05;;;;;;;2.60;2.40;;;22.90;99.90;;;;;;5062887;28;20894;-56
2023/04/30 11:35:34;;;;;;;3.60;3.30;;;22.90;99.90;;;;;;5076041;28;20453;-59
2023/04/30 11:38:03;;;;;;;3.30;3.00;;;22.60;99.90;;;;;;5076197;28;20489;-58
2023/04/30 11:40:36;;;;;;;3.40;3.10;;;22.50;99.90;;;;;;5076291;28;20953;-58
2023/04/30 11:43:03;;;;;;;3.97;3.67;;;22.30;99.90;;;;;;5076300;28;20469;-57
2023/04/30 11:45:30;;;;;;;3.73;3.00;;;22.00;99.90;;;;;;5076435;28;20462;-57
2023/04/30 11:47:58;;;;;;;3.20;2.90;;;22.20;99.90;;;;;;5075436;28;20489;-56
2023/04/30 11:50:27;;;;;;;2.93;2.73;;;22.50;99.90;;;;;;5076162;28;20511;-59
2023/04/30 11:53:00;;;;;;;4.07;3.20;;;22.30;99.90;;;;;;5076398;28;20752;-56
2023/04/30 11:55:29;;;;;;;2.93;2.70;;;22.40;99.90;;;;;;5074348;28;20465;-60
2023/04/30 11:57:58;;;;;;;3.43;2.80;;;22.80;99.90;;;;;;5056689;28;20476;-57
2023/04/30 12:00:28;;;;;;;3.37;3.17;;;21.70;99.90;;;;;;5056829;28;20473;-58
2023/04/30 12:02:56;;;;;;;3.27;2.70;;;22.30;99.90;;;;;;5056640;28;20462;-57
2023/04/30 12:05:25;;;;;;;3.03;2.60;;;22.70;99.90;;;;;;5054969;28;20480;-59
2023/04/30 12:07:59;;;;;;;3.13;2.90;;;23.10;99.90;;;;;;5055179;28;20567;-57
2023/04/30 12:10:27;;;;;;;4.10;3.20;;;23.80;99.90;;;;;;5055124;28;20454;-58
2023/04/30 12:12:54;;;;;;;2.53;2.33;;;24.30;99.90;;;;;;5055202;28;20774;-55
2023/04/30 12:15:25;;;;;;;3.27;2.97;;;24.50;99.90;;;;;;5054172;28;20569;-59
2023/04/30 12:17:54;;;;;;;3.33;3.03;;;23.50;99.90;;;;;;5055317;28;20462;-57
2023/04/30 12:20:22;;;;;;;4.70;3.80;;;23.70;99.90;;;;;;5056156;28;20466;-60
2023/04/30 12:22:49;;;;;;;3.47;3.17;;;23.00;99.90;;;;;;5063326;28;20481;-56
2023/04/30 12:25:20;;;;;;;3.13;2.93;;;22.60;99.90;;;;;;5070222;28;20575;-58
2023/04/30 12:27:50;;;;;;;3.63;3.33;;;22.90;99.90;;;;;;5070176;28;20571;-51
2023/04/30 12:30:21;;;;;;;3.67;3.33;;;22.90;99.90;;;;;;5071497;28;20909;-57
2023/04/30 12:32:50;;;;;;;2.87;2.67;;;23.20;99.90;;;;;;5078202;28;20461;-57
2023/04/30 12:35:19;;;;;;;3.03;2.83;;;22.90;99.90;;;;;;5078335;28;20556;-58
2023/04/30 12:37:50;;;;;;;3.20;3.00;;;22.80;99.90;;;;;;5077499;28;20840;-56
2023/04/30 12:40:20;;;;;;;3.60;3.40;;;22.60;99.90;;;;;;5078026;28;20827;-56
2023/04/30 12:42:47;;;;;;;3.27;2.73;;;22.10;99.90;;;;;;5078137;28;20750;-59
2023/04/30 12:45:47;;;;;;;3.00;2.80;;;21.80;99.90;;;;;;5077481;28;20777;-57
2023/04/30 12:48:15;;;;;;;4.67;3.07;;;22.70;99.90;;;;;;5077504;28;20492;-58
2023/04/30 12:50:47;;;;;;;2.90;2.70;;;21.50;99.90;;;;;;5078175;28;20496;-60